createdAt,value
2018-05-17T00:01:40.233Z,99.90
2018-05-17T00:04:08.477Z,99.90
2018-05-17T00:06:35.977Z,99.90
2018-05-17T00:09:03.461Z,99.90
2018-05-17T00:11:30.967Z,99.90
2018-05-17T00:13:58.443Z,99.90
2018-05-17T00:16:26.748Z,99.90
2018-05-17T00:18:54.230Z,99.90
2018-05-17T00:21:21.715Z,99.90
2018-05-17T00:23:49.204Z,99.90
2018-05-17T00:26:16.687Z,99.90
2018-05-17T00:28:44.199Z,99.90
2018-05-17T00:31:12.436Z,99.90
2018-05-17T00:33:39.928Z,99.90
2018-05-17T00:36:07.409Z,99.90
2018-05-17T00:38:34.915Z,99.90
2018-05-17T00:41:02.396Z,99.90
2018-05-17T00:43:29.893Z,99.90
2018-05-17T00:45:57.385Z,99.90
2018-05-17T00:48:24.852Z,99.90
2018-05-17T00:50:52.344Z,99.90
2018-05-17T00:53:31.507Z,99.90
2018-05-17T00:55:59.013Z,99.90
2018-05-17T00:58:26.496Z,99.90
2018-05-17T01:00:54.025Z,99.90
2018-05-17T01:03:21.505Z,99.90
2018-05-17T01:05:49.787Z,99.90
2018-05-17T01:08:18.032Z,99.90
2018-05-17T01:10:45.540Z,99.90
2018-05-17T01:13:13.034Z,99.90
2018-05-17T01:15:40.505Z,99.90
2018-05-17T01:18:07.988Z,99.90
2018-05-17T01:20:35.451Z,99.90
2018-05-17T01:23:02.936Z,99.90
2018-05-17T01:25:30.428Z,99.90
2018-05-17T01:27:57.912Z,99.90
2018-05-17T01:30:25.392Z,99.90
2018-05-17T01:32:53.643Z,99.90
2018-05-17T01:35:21.128Z,99.90
2018-05-17T01:38:01.275Z,99.90
2018-05-17T01:40:28.736Z,99.90
2018-05-17T01:42:56.976Z,99.90
2018-05-17T01:45:24.456Z,99.90
2018-05-17T01:47:51.940Z,99.90
2018-05-17T01:50:20.191Z,99.90
2018-05-17T01:52:47.667Z,99.90
2018-05-17T01:55:15.909Z,99.90
2018-05-17T01:57:43.403Z,99.90
2018-05-17T02:00:11.735Z,99.90
2018-05-17T02:02:40.940Z,99.90
2018-05-17T02:05:08.431Z,99.90
2018-05-17T02:07:36.692Z,99.90
2018-05-17T02:10:04.167Z,99.90
2018-05-17T02:12:32.415Z,99.90
2018-05-17T02:14:59.901Z,99.90
2018-05-17T02:17:28.160Z,99.90
2018-05-17T02:19:55.629Z,99.90
2018-05-17T02:22:23.096Z,99.90
2018-05-17T02:24:51.372Z,99.90
2018-05-17T02:27:19.619Z,99.90
2018-05-17T02:29:47.106Z,99.90
2018-05-17T02:32:15.350Z,99.90
2018-05-17T02:34:42.847Z,99.90
2018-05-17T02:37:11.092Z,99.90
2018-05-17T02:39:38.568Z,99.90
2018-05-17T02:42:06.080Z,99.90
2018-05-17T02:44:34.377Z,99.90
2018-05-17T02:47:01.885Z,99.90
2018-05-17T02:49:30.123Z,99.90
2018-05-17T02:51:57.607Z,99.90
2018-05-17T02:54:25.844Z,99.90
2018-05-17T02:56:53.334Z,99.90
2018-05-17T02:59:20.801Z,99.90
2018-05-17T03:01:49.068Z,99.90
2018-05-17T03:04:17.343Z,99.90
2018-05-17T03:06:44.809Z,99.90
2018-05-17T03:09:13.079Z,99.90
2018-05-17T03:11:40.668Z,99.90
2018-05-17T03:14:08.176Z,99.90
2018-05-17T03:16:35.657Z,99.90
2018-05-17T03:19:03.912Z,99.90
2018-05-17T03:21:31.394Z,99.90
2018-05-17T03:23:58.916Z,99.90
2018-05-17T03:26:26.403Z,99.90
2018-05-17T03:28:54.673Z,99.90
2018-05-17T03:31:22.162Z,99.90
2018-05-17T03:33:49.684Z,99.90
2018-05-17T03:36:17.171Z,99.90
2018-05-17T03:38:45.403Z,99.90
2018-05-17T03:41:12.891Z,99.90
2018-05-17T03:43:40.357Z,99.90
2018-05-17T03:46:08.616Z,99.90
2018-05-17T03:48:36.083Z,99.90
2018-05-17T03:51:03.554Z,99.90
2018-05-17T03:53:31.804Z,99.90
2018-05-17T03:55:59.280Z,99.90
2018-05-17T03:58:27.540Z,99.90
2018-05-17T04:01:07.051Z,99.90
2018-05-17T04:03:46.609Z,99.90
2018-05-17T04:06:26.005Z,99.90
2018-05-17T04:08:53.499Z,99.90
2018-05-17T04:11:20.977Z,99.90
2018-05-17T04:13:48.521Z,99.90
2018-05-17T04:16:16.704Z,99.90
2018-05-17T04:18:44.192Z,99.90
2018-05-17T04:21:12.459Z,99.90
2018-05-17T04:23:40.019Z,99.90
2018-05-17T04:26:07.495Z,99.90
2018-05-17T04:28:35.744Z,99.90
2018-05-17T04:31:03.254Z,99.90
2018-05-17T04:33:30.732Z,99.90
2018-05-17T04:35:58.237Z,99.90
2018-05-17T04:38:26.484Z,99.90
2018-05-17T04:40:53.990Z,99.90
2018-05-17T04:43:22.223Z,99.90
2018-05-17T04:45:49.721Z,99.90
2018-05-17T04:48:17.304Z,99.90
2018-05-17T04:50:44.833Z,99.90
2018-05-17T04:53:13.143Z,99.90
2018-05-17T04:55:40.628Z,99.90
2018-05-17T04:58:08.124Z,99.90
2018-05-17T05:00:36.380Z,99.90
2018-05-17T05:03:03.946Z,99.90
2018-05-17T05:05:31.376Z,99.90
2018-05-17T05:07:58.868Z,99.90
2018-05-17T05:10:26.352Z,99.90
2018-05-17T05:12:53.844Z,99.90
2018-05-17T05:15:21.333Z,99.90
2018-05-17T05:17:48.802Z,99.90
2018-05-17T05:20:16.302Z,99.90
2018-05-17T05:22:43.788Z,99.90
2018-05-17T05:25:11.280Z,99.90
2018-05-17T05:27:39.538Z,99.90
2018-05-17T05:30:07.042Z,99.90
2018-05-17T05:32:34.536Z,99.90
2018-05-17T05:35:02.008Z,99.90
2018-05-17T05:37:29.601Z,99.90
2018-05-17T05:39:57.003Z,99.90
2018-05-17T05:42:24.491Z,99.90
2018-05-17T05:44:51.988Z,99.90
2018-05-17T05:47:20.248Z,99.90
2018-05-17T05:49:47.760Z,99.90
2018-05-17T05:52:15.268Z,99.90
2018-05-17T05:54:43.527Z,99.90
2018-05-17T05:57:12.504Z,99.90
2018-05-17T05:59:40.001Z,99.90
2018-05-17T06:02:08.236Z,99.90
2018-05-17T06:04:35.723Z,99.90
2018-05-17T06:07:03.973Z,99.90
2018-05-17T06:09:31.466Z,99.90
2018-05-17T06:11:59.718Z,99.90
2018-05-17T06:14:27.186Z,99.90
2018-05-17T06:16:54.753Z,99.90
2018-05-17T06:19:23.037Z,99.90
2018-05-17T06:21:51.287Z,99.90
2018-05-17T06:24:18.764Z,99.90
2018-05-17T06:26:47.042Z,99.90
2018-05-17T06:29:15.287Z,99.90
2018-05-17T06:31:42.786Z,99.90
2018-05-17T06:34:11.024Z,99.90
2018-05-17T06:36:38.506Z,99.90
2018-05-17T06:39:05.992Z,99.90
2018-05-17T06:41:33.467Z,99.90
2018-05-17T06:44:00.990Z,99.90
2018-05-17T06:46:28.442Z,99.90
2018-05-17T06:48:55.941Z,99.90
2018-05-17T06:51:23.432Z,99.90
2018-05-17T06:53:51.019Z,99.90
2018-05-17T06:56:19.292Z,99.90
2018-05-17T06:58:46.820Z,99.90
2018-05-17T07:01:14.397Z,99.90
2018-05-17T07:03:42.630Z,99.90
2018-05-17T07:06:10.134Z,99.90
2018-05-17T07:08:37.617Z,99.90
2018-05-17T07:11:05.856Z,99.90
2018-05-17T07:13:33.384Z,99.90
2018-05-17T07:16:00.900Z,99.90
2018-05-17T07:18:28.491Z,99.90
2018-05-17T07:20:55.876Z,99.90
2018-05-17T07:23:23.435Z,99.90
2018-05-17T07:25:50.974Z,99.90
2018-05-17T07:28:18.434Z,99.90
2018-05-17T07:30:45.934Z,99.90
2018-05-17T07:33:13.402Z,99.90
2018-05-17T07:35:40.888Z,99.90
2018-05-17T07:38:09.145Z,99.90
2018-05-17T07:40:36.648Z,99.90
2018-05-17T07:43:04.120Z,99.90
2018-05-17T07:45:31.629Z,99.90
2018-05-17T07:47:59.867Z,99.90
2018-05-17T07:50:27.402Z,99.90
2018-05-17T07:52:54.884Z,99.90
2018-05-17T07:55:22.352Z,99.90
2018-05-17T07:57:49.840Z,99.90
2018-05-17T08:00:18.080Z,99.90
2018-05-17T08:02:45.565Z,99.90
2018-05-17T08:05:13.887Z,99.90
2018-05-17T08:07:41.445Z,99.90
2018-05-17T08:10:08.922Z,99.90
2018-05-17T08:12:36.415Z,99.90
2018-05-17T08:15:03.888Z,99.90
2018-05-17T08:17:32.298Z,99.90
2018-05-17T08:19:59.791Z,99.90
2018-05-17T08:22:27.259Z,99.90
2018-05-17T08:24:55.543Z,99.90
2018-05-17T08:27:23.808Z,99.90
2018-05-17T08:29:51.305Z,99.90
2018-05-17T08:32:19.545Z,99.90
2018-05-17T08:34:47.024Z,99.90
2018-05-17T08:37:15.278Z,99.90
2018-05-17T08:39:42.753Z,99.90
2018-05-17T08:42:10.236Z,99.90
2018-05-17T08:44:38.516Z,99.90
2018-05-17T08:47:06.768Z,99.90
2018-05-17T08:49:34.258Z,99.90
2018-05-17T08:52:01.740Z,99.90
2018-05-17T08:54:29.310Z,99.90
2018-05-17T08:56:57.510Z,99.90
2018-05-17T08:59:24.999Z,99.90
2018-05-17T09:01:52.510Z,99.90
2018-05-17T09:04:19.995Z,99.90
2018-05-17T09:06:48.236Z,99.90
2018-05-17T09:09:15.713Z,99.90
2018-05-17T09:11:43.203Z,99.90
2018-05-17T09:14:11.447Z,99.90
2018-05-17T09:16:38.939Z,99.90
2018-05-17T09:19:07.192Z,99.90
2018-05-17T09:21:36.187Z,99.90
2018-05-17T09:24:03.676Z,99.90
2018-05-17T09:26:31.988Z,99.90
2018-05-17T09:28:59.470Z,99.90
2018-05-17T09:31:26.955Z,99.90
2018-05-17T09:33:55.208Z,99.90
2018-05-17T09:36:22.811Z,99.90
2018-05-17T09:38:50.311Z,99.90
2018-05-17T09:41:17.806Z,99.90
2018-05-17T09:43:46.079Z,99.60
2018-05-17T09:46:14.322Z,99.80
2018-05-17T09:48:41.848Z,99.70
2018-05-17T09:51:09.341Z,99.50
2018-05-17T09:53:36.831Z,99.20
2018-05-17T09:56:05.099Z,98.80
2018-05-17T09:58:32.608Z,98.70
2018-05-17T10:01:00.108Z,99.10
2018-05-17T10:03:27.584Z,99.10
2018-05-17T10:05:55.844Z,98.30
2018-05-17T10:08:23.315Z,98.30
2018-05-17T10:10:50.820Z,98.80
2018-05-17T10:13:18.374Z,98.30
2018-05-17T10:15:45.879Z,98.40
2018-05-17T10:18:13.367Z,98.00
2018-05-17T10:20:41.618Z,96.80
2018-05-17T10:23:09.963Z,97.00
2018-05-17T10:25:37.479Z,97.00
2018-05-17T10:28:05.749Z,97.50
2018-05-17T10:30:33.999Z,97.70
2018-05-17T10:33:02.280Z,97.40
2018-05-17T10:35:29.747Z,97.40
2018-05-17T10:37:58.732Z,97.70
2018-05-17T10:40:26.220Z,97.70
2018-05-17T10:42:54.456Z,97.10
2018-05-17T10:45:21.932Z,97.00
2018-05-17T10:47:50.911Z,96.80
2018-05-17T10:50:18.412Z,96.80
2018-05-17T10:52:45.920Z,97.50
2018-05-17T10:55:13.404Z,96.70
2018-05-17T10:57:40.888Z,96.70
2018-05-17T11:00:08.390Z,96.50
2018-05-17T11:02:35.928Z,96.80
2018-05-17T11:05:04.159Z,97.20
2018-05-17T11:07:31.647Z,97.20
2018-05-17T11:09:59.132Z,98.00
2018-05-17T11:12:27.639Z,98.20
2018-05-17T11:14:55.196Z,97.80
2018-05-17T11:17:22.817Z,97.90
2018-05-17T11:19:50.312Z,97.50
2018-05-17T11:22:17.785Z,97.10
2018-05-17T11:24:45.279Z,96.70
2018-05-17T11:27:12.781Z,96.80
2018-05-17T11:29:40.292Z,97.00
2018-05-17T11:32:07.796Z,96.40
2018-05-17T11:34:35.302Z,96.30
2018-05-17T11:37:03.540Z,96.60
2018-05-17T11:39:31.024Z,96.60
2018-05-17T11:41:58.509Z,96.70
2018-05-17T11:44:26.023Z,96.50
2018-05-17T11:46:53.513Z,95.90
2018-05-17T11:49:21.764Z,95.30
2018-05-17T11:51:50.172Z,95.10
2018-05-17T11:54:18.443Z,94.50
2018-05-17T11:56:46.036Z,94.50
2018-05-17T11:59:13.520Z,94.00
2018-05-17T12:01:41.033Z,93.60
2018-05-17T12:04:08.499Z,92.30
2018-05-17T12:06:36.073Z,92.40
2018-05-17T12:09:03.567Z,92.10
2018-05-17T12:11:31.028Z,91.90
2018-05-17T12:13:58.523Z,91.70
2018-05-17T12:16:26.756Z,91.50
2018-05-17T12:18:54.321Z,91.50
2018-05-17T12:21:21.800Z,91.60
2018-05-17T12:23:49.276Z,91.70
2018-05-17T12:26:17.512Z,90.60
2018-05-17T12:28:45.000Z,90.60
2018-05-17T12:31:13.268Z,90.00
2018-05-17T12:33:40.748Z,90.00
2018-05-17T12:36:09.010Z,90.20
2018-05-17T12:38:37.256Z,91.10
2018-05-17T12:41:04.748Z,90.90
2018-05-17T12:43:32.984Z,90.00
2018-05-17T12:46:00.469Z,90.00
2018-05-17T12:48:27.940Z,86.20
2018-05-17T12:50:56.276Z,85.40
2018-05-17T12:53:23.748Z,85.40
2018-05-17T12:55:51.243Z,86.10
2018-05-17T12:58:19.508Z,81.90
2018-05-17T13:00:48.784Z,82.30
2018-05-17T13:03:16.268Z,82.10
2018-05-17T13:05:44.507Z,77.10
2018-05-17T13:08:12.000Z,77.00
2018-05-17T13:10:40.243Z,75.60
2018-05-17T13:13:07.744Z,75.80
2018-05-17T13:15:36.006Z,73.60
2018-05-17T13:18:04.260Z,72.60
2018-05-17T13:20:31.737Z,72.50
2018-05-17T13:22:59.380Z,70.30
2018-05-17T13:25:26.867Z,69.20
2018-05-17T13:27:55.266Z,64.40
2018-05-17T13:30:22.889Z,64.30
2018-05-17T13:32:50.265Z,62.70
2018-05-17T13:35:18.524Z,59.60
2018-05-17T13:37:46.059Z,59.50
2018-05-17T13:40:13.551Z,59.70
2018-05-17T13:42:41.070Z,57.50
2018-05-17T13:45:08.558Z,57.90
2018-05-17T13:47:36.118Z,60.10
2018-05-17T13:50:04.316Z,56.10
2018-05-17T13:52:32.547Z,55.70
2018-05-17T13:55:00.016Z,55.50
2018-05-17T13:57:27.500Z,55.30
2018-05-17T13:59:55.745Z,51.00
2018-05-17T14:02:23.336Z,50.90
2018-05-17T14:04:51.500Z,51.30
2018-05-17T14:07:18.995Z,51.20
2018-05-17T14:09:46.668Z,51.00
2018-05-17T14:12:14.076Z,51.30
2018-05-17T14:14:42.324Z,51.10
2018-05-17T14:17:09.804Z,51.00
2018-05-17T14:19:37.299Z,51.70
2018-05-17T14:22:05.568Z,54.20
2018-05-17T14:24:33.832Z,54.40
2018-05-17T14:27:01.295Z,54.30
2018-05-17T14:29:29.569Z,55.10
2018-05-17T14:31:57.054Z,55.00
2018-05-17T14:34:24.560Z,56.30
2018-05-17T14:36:52.029Z,57.40
2018-05-17T14:39:19.517Z,57.50
2018-05-17T14:41:47.776Z,59.20
2018-05-17T14:44:15.243Z,59.20
2018-05-17T14:46:43.551Z,60.70
2018-05-17T14:49:11.035Z,60.60
2018-05-17T14:51:38.592Z,60.30
2018-05-17T14:54:06.077Z,58.20
2018-05-17T14:56:33.571Z,57.80
2018-05-17T14:59:01.868Z,56.50
2018-05-17T15:01:30.243Z,56.40
2018-05-17T15:03:57.759Z,56.30
2018-05-17T15:06:26.132Z,56.60
2018-05-17T15:08:53.615Z,56.40
2018-05-17T15:11:22.021Z,56.30
2018-05-17T15:13:49.593Z,56.20
2018-05-17T15:16:17.032Z,56.60
2018-05-17T15:18:44.562Z,56.80
2018-05-17T15:21:12.040Z,57.70
2018-05-17T15:23:40.315Z,58.00
2018-05-17T15:26:08.651Z,58.90
2018-05-17T15:28:36.124Z,58.90
2018-05-17T15:31:03.633Z,58.00
2018-05-17T15:33:31.160Z,57.30
2018-05-17T15:35:59.650Z,58.10
2018-05-17T15:38:27.903Z,59.20
2018-05-17T15:40:55.367Z,59.10
2018-05-17T15:43:23.622Z,60.70
2018-05-17T15:45:51.098Z,60.70
2018-05-17T15:48:18.589Z,59.10
2018-05-17T15:50:46.848Z,60.40
2018-05-17T15:53:15.092Z,59.50
2018-05-17T15:55:42.580Z,59.50
2018-05-17T15:58:10.846Z,60.40
2018-05-17T16:00:38.390Z,60.30
2018-05-17T16:03:05.907Z,60.90
2018-05-17T16:05:33.463Z,60.40
2018-05-17T16:08:01.002Z,61.50
2018-05-17T16:10:29.355Z,61.90
2018-05-17T16:12:56.831Z,61.80
2018-05-17T16:15:24.523Z,62.20
2018-05-17T16:17:52.632Z,62.70
2018-05-17T16:20:20.160Z,62.80
2018-05-17T16:22:47.723Z,64.00
2018-05-17T16:25:15.255Z,63.30
2018-05-17T16:27:43.536Z,65.00
2018-05-17T16:30:11.130Z,65.00
2018-05-17T16:32:38.618Z,64.70
2018-05-17T16:35:06.104Z,66.40
2018-05-17T16:37:34.382Z,65.60
2018-05-17T16:40:02.616Z,65.50
2018-05-17T16:42:30.108Z,65.40
2018-05-17T16:44:57.609Z,67.00
2018-05-17T16:47:25.122Z,67.80
2018-05-17T16:49:53.433Z,69.40
2018-05-17T16:52:21.002Z,69.30
2018-05-17T16:54:48.518Z,69.30
2018-05-17T16:57:15.993Z,70.10
2018-05-17T16:59:44.246Z,71.20
2018-05-17T17:02:12.749Z,71.10
2018-05-17T17:04:41.067Z,72.00
2018-05-17T17:07:08.555Z,71.90
2018-05-17T17:09:36.047Z,72.70
2018-05-17T17:12:04.292Z,73.90
2018-05-17T17:14:31.858Z,73.90
2018-05-17T17:16:59.331Z,74.50
2018-05-17T17:19:27.589Z,74.40
2018-05-17T17:21:55.356Z,74.30
2018-05-17T17:24:24.467Z,75.30
2018-05-17T17:26:52.025Z,75.30
2018-05-17T17:29:20.329Z,76.50
2018-05-17T17:31:47.809Z,76.40
2018-05-17T17:34:15.349Z,77.40
2018-05-17T17:36:43.662Z,78.30
2018-05-17T17:39:11.119Z,78.30
2018-05-17T17:41:38.608Z,78.90
2018-05-17T17:44:06.099Z,79.60
2018-05-17T17:46:34.363Z,80.10
2018-05-17T17:49:02.641Z,80.60
2018-05-17T17:51:30.900Z,80.70
2018-05-17T17:53:58.387Z,80.50
2018-05-17T17:56:25.933Z,81.50
2018-05-17T17:58:54.185Z,82.10
2018-05-17T18:01:21.676Z,82.10
2018-05-17T18:03:49.150Z,81.60
2018-05-17T18:06:16.907Z,82.70
2018-05-17T18:08:44.395Z,83.20
2018-05-17T18:11:11.878Z,83.60
2018-05-17T18:13:39.369Z,83.60
2018-05-17T18:16:07.611Z,83.10
2018-05-17T18:18:36.036Z,83.10
2018-05-17T18:21:03.521Z,83.60
2018-05-17T18:23:31.012Z,84.00
2018-05-17T18:25:58.492Z,83.80
2018-05-17T18:28:26.766Z,85.30
2018-05-17T18:30:55.044Z,86.40
2018-05-17T18:33:23.312Z,87.40
2018-05-17T18:35:51.574Z,87.90
2018-05-17T18:38:19.075Z,87.90
2018-05-17T18:40:46.546Z,88.50
2018-05-17T18:43:14.125Z,89.10
2018-05-17T18:45:41.544Z,89.90
2018-05-17T18:48:09.840Z,90.50
2018-05-17T18:50:37.329Z,90.50
2018-05-17T18:53:04.806Z,90.60
2018-05-17T18:55:32.344Z,91.00
2018-05-17T18:57:59.813Z,91.30
2018-05-17T19:02:40.151Z,91.60
2018-05-17T19:05:07.608Z,91.90
2018-05-17T19:07:35.101Z,92.40
2018-05-17T19:10:02.603Z,92.60
2018-05-17T19:12:30.856Z,93.40
2018-05-17T19:14:58.351Z,93.40
2018-05-17T19:17:25.834Z,93.70
2018-05-17T19:19:53.316Z,94.20
2018-05-17T19:22:20.824Z,94.70
2018-05-17T19:24:48.305Z,95.10
2018-05-17T19:27:17.025Z,95.50
2018-05-17T19:29:44.520Z,96.10
2018-05-17T19:32:12.788Z,97.00
2018-05-17T19:34:41.038Z,97.30
2018-05-17T19:37:08.545Z,97.50
2018-05-17T19:39:36.008Z,97.70
2018-05-17T19:42:03.503Z,98.10
2018-05-17T19:44:30.984Z,98.60
2018-05-17T19:46:58.469Z,98.90
2018-05-17T19:49:25.942Z,99.40
2018-05-17T19:51:53.442Z,99.60
2018-05-17T19:55:30.753Z,99.90
2018-05-17T19:57:58.236Z,99.90
2018-05-17T20:00:26.504Z,99.90
2018-05-17T20:02:54.799Z,99.90
2018-05-17T20:05:22.295Z,99.90
2018-05-17T20:07:49.815Z,99.90
2018-05-17T20:10:17.302Z,99.90
2018-05-17T20:12:45.588Z,99.90
2018-05-17T20:15:13.092Z,99.90
2018-05-17T20:17:41.340Z,99.90
2018-05-17T20:20:08.828Z,99.90
2018-05-17T20:22:37.064Z,99.90
2018-05-17T20:25:04.549Z,99.90
2018-05-17T20:27:32.016Z,99.90
2018-05-17T20:30:00.285Z,99.90
2018-05-17T20:32:28.610Z,99.90
2018-05-17T20:34:56.119Z,99.90
2018-05-17T20:37:23.597Z,99.90
2018-05-17T20:39:51.888Z,99.90
2018-05-17T20:42:19.449Z,99.90
2018-05-17T20:44:46.880Z,99.90
2018-05-17T20:47:15.152Z,99.90
2018-05-17T20:49:42.709Z,99.90
2018-05-17T20:52:10.124Z,99.90
2018-05-17T20:54:37.611Z,99.90
2018-05-17T20:57:05.114Z,99.90
2018-05-17T20:59:32.599Z,99.90
2018-05-17T21:02:00.104Z,99.90
2018-05-17T21:04:27.575Z,99.90
2018-05-17T21:06:55.843Z,99.90
2018-05-17T21:09:24.089Z,99.90
2018-05-17T21:11:51.572Z,99.90
2018-05-17T21:14:19.056Z,99.90
2018-05-17T21:16:46.543Z,99.90
2018-05-17T21:19:14.029Z,99.90
2018-05-17T21:21:41.512Z,99.90
2018-05-17T21:24:09.751Z,99.90
2018-05-17T21:26:37.240Z,99.90
2018-05-17T21:29:06.243Z,99.90
2018-05-17T21:31:34.511Z,99.90
